Vernicos Oceanos — SVA7379 — position and weather

sailwx.info

Track history (hours):
 
Tides and Currents Weather Stations Pressure Air Temp Water Temp Dewpoint Dewpoint Depression Visibility Wind Speed Wind Dir Waves Ship Positions

Vernicos Oceanos

Last reported at 2018-Jul-19 21:09 UTC. Time now 2018-Jul-20 23:46 UTC.
Position N 37°57' E 023°37'.

; draft 4 m.

MMSI: 239998500.

Date/timePositionNaut miles runAvg speedWind from/ knotsBaromVisibWave heightAir tempDewpointWater temp
2018-Jul-19 21:09N 37°57' E 023°37'0 2.3
2018-Jul-19 21:00N 37°57' E 023°36'4 7.2
2018-Jul-19 20:30N 38°00' E 023°34'2 4.0
2018-Jul-19 20:00N 38°02' E 023°36'0 0.0
2018-Jul-19 19:25N 38°02' E 023°36'0 0.6
2018-Jul-19 18:59N 38°01' E 023°35'0 0.1
2018-Jul-19 18:19N 38°02' E 023°36'0 0.5
2018-Jul-19 18:00N 38°01' E 023°36'0 0.2
2018-Jul-19 17:30N 38°01' E 023°36'0 0.0
2018-Jul-19 07:22N 38°01' E 023°35'0 0.7
2018-Jul-19 07:00N 38°02' E 023°36'1 1.4
2018-Jul-19 06:31N 38°01' E 023°35'0 0.0
2018-Jul-18 14:29N 38°01' E 023°36'0 0.2
2018-Jul-18 13:30N 38°02' E 023°35'1 2.3
2018-Jul-18 13:00N 38°01' E 023°34'2 4.1
2018-Jul-18 12:29N 38°01' E 023°31'0 0.3
2018-Jul-18 12:00N 38°01' E 023°31'4 7.6
2018-Jul-18 11:30N 37°57' E 023°34'3 2.6
2018-Jul-18 10:30N 37°57' E 023°37'0 0.0
2018-Jul-18 10:01N 37°57' E 023°37'0 0.0
2018-Jul-18 09:31N 37°57' E 023°37'1 1.6
2018-Jul-18 09:00N 37°57' E 023°37'0 0.0
2018-Jul-18 08:30N 37°57' E 023°37'0 0.0
2018-Jul-18 08:00N 37°57' E 023°37'0 0.0
2018-Jul-18 07:30N 37°57' E 023°37'0 0.0
2018-Jul-18 07:01N 37°57' E 023°37'0 0.0
2018-Jul-18 06:30N 37°57' E 023°37'0 0.0
2018-Jul-18 06:01N 37°57' E 023°37'0 0.0
2018-Jul-18 05:30N 37°57' E 023°37'0 0.0
2018-Jul-18 05:01N 37°57' E 023°37'0 0.0
2018-Jul-18 04:30N 37°57' E 023°37'0 0.0
2018-Jul-18 04:00N 37°57' E 023°37'0 0.0
2018-Jul-18 03:31N 37°57' E 023°37'0 0.0
2018-Jul-18 03:00N 37°57' E 023°37'0 0.0
2018-Jul-18 02:30N 37°57' E 023°37'0 0.0
2018-Jul-18 02:01N 37°57' E 023°37'0 0.0
2018-Jul-18 01:31N 37°57' E 023°37'0 0.0
2018-Jul-18 01:01N 37°57' E 023°37'0 0.0
2018-Jul-18 00:30N 37°57' E 023°37'0 0.0
2018-Jul-18 00:00N 37°57' E 023°37'0 0.0
2018-Jul-17 23:30N 37°57' E 023°37'0 0.0
2018-Jul-17 23:00N 37°57' E 023°37'0 0.0
2018-Jul-17 22:31N 37°57' E 023°37'0 0.0
2018-Jul-17 22:01N 37°57' E 023°37'0 0.0
2018-Jul-17 21:31N 37°57' E 023°37'0 0.0
2018-Jul-17 21:00N 37°57' E 023°37'0 0.0
2018-Jul-17 20:31N 37°57' E 023°37'0 0.0
2018-Jul-17 20:00N 37°57' E 023°37'0 0.0
2018-Jul-17 19:31N 37°57' E 023°37'0 0.0
2018-Jul-17 19:00N 37°57' E 023°37'0 0.0
2018-Jul-17 18:30N 37°57' E 023°37'0 0.0
2018-Jul-17 18:00N 37°57' E 023°37'0 0.0
2018-Jul-17 17:31N 37°57' E 023°37'0 0.0
2018-Jul-17 17:00N 37°57' E 023°37'0 0.0
2018-Jul-17 16:31N 37°57' E 023°37'0 0.0
2018-Jul-17 16:01N 37°57' E 023°37'0 0.0
2018-Jul-17 15:31N 37°57' E 023°37'0 0.0
2018-Jul-17 15:01N 37°57' E 023°37'0 0.0
2018-Jul-17 14:30N 37°57' E 023°37'0 0.0
2018-Jul-17 14:01N 37°57' E 023°37'0 0.0
2018-Jul-17 13:30N 37°57' E 023°37'0 0.0
2018-Jul-17 13:00N 37°57' E 023°37'0 0.0
2018-Jul-17 12:30N 37°57' E 023°37'0 0.1
2018-Jul-17 12:01N 37°57' E 023°37'0 0.0
2018-Jul-17 11:31N 37°57' E 023°37'0 0.8
2018-Jul-17 11:01N 37°58' E 023°36'2 3.0
2018-Jul-17 10:31N 37°56' E 023°36'1 2.8
2018-Jul-17 10:01N 37°57' E 023°37'0 0.0
2018-Jul-17 09:31N 37°57' E 023°37'1 2.2
2018-Jul-17 09:01N 37°57' E 023°35'2 3.1
2018-Jul-17 08:30N 37°55' E 023°36'2 3.4
2018-Jul-17 08:00N 37°57' E 023°35'1 2.1
2018-Jul-17 07:30N 37°57' E 023°37'0 0.0
2018-Jul-17 07:00N 37°57' E 023°37'0 0.0
2018-Jul-17 06:30N 37°57' E 023°37'0 0.0
2018-Jul-17 06:00N 37°57' E 023°37'0 0.0
2018-Jul-16 11:15N 37°57' E 023°37'0 0.0
2018-Jul-16 11:00N 37°57' E 023°37'0 0.0
2018-Jul-16 10:31N 37°57' E 023°37'0 0.6
2018-Jul-16 10:01N 37°57' E 023°36'1 1.9
2018-Jul-16 09:30N 37°57' E 023°36'1 2.0
2018-Jul-16 09:00N 37°57' E 023°37'0 0.0
2018-Jul-16 08:30N 37°57' E 023°37'0 0.0
2018-Jul-16 08:00N 37°57' E 023°37'0 0.0
2018-Jul-16 07:30N 37°57' E 023°37'1 3.0
2018-Jul-16 07:00N 37°57' E 023°35'0 0.5
2018-Jul-16 06:30N 37°57' E 023°35'2 3.1
2018-Jul-16 06:00N 37°55' E 023°35'1 1.3
2018-Jul-16 05:30N 37°56' E 023°35'2 3.6
2018-Jul-16 05:00N 37°57' E 023°37'0 0.0
2018-Jul-16 04:30N 37°57' E 023°37'0 0.0
2018-Jul-16 04:00N 37°57' E 023°37'0 0.0
2018-Jul-16 03:30N 37°57' E 023°37'0 0.0
2018-Jul-16 03:00N 37°57' E 023°37'0 0.0
2018-Jul-15 18:13N 37°57' E 023°37'0 0.0
2018-Jul-15 18:00N 37°57' E 023°37'0 0.0
2018-Jul-15 17:30N 37°57' E 023°37'0 0.0
2018-Jul-15 17:00N 37°57' E 023°37'0 0.0
2018-Jul-15 16:30N 37°57' E 023°37'0 0.0
2018-Jul-15 16:00N 37°57' E 023°37'2 3.9
2018-Jul-15 15:30N 37°57' E 023°34'3 6.0
2018-Jul-15 15:00N 38°00' E 023°34'2 3.8
2018-Jul-15 14:30N 38°01' E 023°35'0 0.0
2018-Jul-15 14:00N 38°01' E 023°35'0 0.0
2018-Jul-15 13:30N 38°01' E 023°36'0 0.0
2018-Jul-15 13:00N 38°01' E 023°35'0 0.0
2018-Jul-15 12:29N 38°01' E 023°35'0 0.0
2018-Jul-15 12:00N 38°01' E 023°35'0 0.0
2018-Jul-15 11:30N 38°01' E 023°35'0 0.0
2018-Jul-15 11:00N 38°01' E 023°35'0 0.0
2018-Jul-15 10:30N 38°01' E 023°35'0 0.5
2018-Jul-15 10:00N 38°02' E 023°36'1 1.9
2018-Jul-15 09:30N 38°01' E 023°35'2 3.9
2018-Jul-15 09:00N 38°01' E 023°32'1 2.2
2018-Jul-15 08:30N 37°60' E 023°33'2 4.7
2018-Jul-15 08:00N 37°58' E 023°33'2 3.4
2018-Jul-15 07:30N 37°57' E 023°35'0 0.6
2018-Jul-15 07:00N 37°57' E 023°35'1 1.8
2018-Jul-15 06:30N 37°57' E 023°36'0 0.2
2018-Jul-15 06:00N 37°57' E 023°36'0 0.0
2018-Jul-15 05:30N 37°57' E 023°36'1 1.3
2018-Jul-15 05:00N 37°57' E 023°36'1 1.3
2018-Jul-15 04:30N 37°57' E 023°36'0 0.0
2018-Jul-15 04:00N 37°57' E 023°36'0 0.2
2018-Jul-15 03:30N 37°57' E 023°36'1 1.5
2018-Jul-15 03:00N 37°57' E 023°37'0 0.0
2018-Jul-14 16:49N 37°57' E 023°37'1 3.4
2018-Jul-14 16:30N 37°57' E 023°35'0 0.1
2018-Jul-14 16:00N 37°57' E 023°35'0 0.3
2018-Jul-14 15:30N 37°57' E 023°35'0 0.0
2018-Jul-14 15:00N 37°57' E 023°35'0 0.0
2018-Jul-14 14:30N 37°57' E 023°35'0 0.0
2018-Jul-14 13:30N 37°57' E 023°35'0 0.0
2018-Jul-14 13:00N 37°57' E 023°35'0 0.0
2018-Jul-14 12:30N 37°57' E 023°35'0 0.1
2018-Jul-14 12:00N 37°57' E 023°35'0 0.1
2018-Jul-14 11:30N 37°57' E 023°35'1 2.6
2018-Jul-14 11:00N 37°56' E 023°36'1 2.0
2018-Jul-14 10:30N 37°56' E 023°35'2 4.2
2018-Jul-14 10:00N 37°57' E 023°37'0 0.0
2018-Jul-14 09:30N 37°57' E 023°37'0 0.0
2018-Jul-14 09:00N 37°57' E 023°37'0 0.0
2018-Jul-14 08:30N 37°57' E 023°37'0 0.0
2018-Jul-14 08:00N 37°57' E 023°37'0 0.0
2018-Jul-14 07:30N 37°57' E 023°37'0 0.0
2018-Jul-14 07:00N 37°57' E 023°37'0 0.0
2018-Jul-14 06:30N 37°57' E 023°37'0 0.0
2018-Jul-14 06:00N 37°57' E 023°37'0 0.9
2018-Jul-14 05:30N 37°57' E 023°36'1 1.2
2018-Jul-14 05:00N 37°57' E 023°36'1 1.5
2018-Jul-14 04:30N 37°56' E 023°36'1 2.8
2018-Jul-14 04:00N 37°57' E 023°37'0 0.0
2018-Jul-14 03:31N 37°57' E 023°37'0 0.0
2018-Jul-14 03:00N 37°57' E 023°37'0 0.0
2018-Jul-13 11:00N 37°57' E 023°37'1 1.4
2018-Jul-13 10:30N 37°57' E 023°36'4 8.8
2018-Jul-13 10:00N 38°00' E 023°32'2 4.3
2018-Jul-13 09:27N 38°02' E 023°30'0 0.7
2018-Jul-13 09:00N 38°02' E 023°30'0 0.6
2018-Jul-13 08:30N 38°02' E 023°30'510.1
2018-Jul-13 08:00N 37°58' E 023°33'3 5.8
2018-Jul-13 07:30N 37°57' E 023°37'0 0.0
2018-Jul-13 07:00N 37°57' E 023°37'0 0.0
2018-Jul-13 06:30N 37°57' E 023°37'0 0.0
2018-Jul-13 06:00N 37°57' E 023°37'0 0.0
2018-Jul-13 05:30N 37°57' E 023°37'0 0.8
2018-Jul-13 05:00N 37°58' E 023°36'1 2.2
2018-Jul-13 04:31N 37°57' E 023°36'1 1.8
2018-Jul-13 04:00N 37°57' E 023°36'0 0.6
2018-Jul-13 03:31N 37°57' E 023°37'0 0.0
2018-Jul-13 03:01N 37°57' E 023°37'0 0.0
2018-Jul-13 02:31N 37°57' E 023°37'0 0.0
2018-Jul-13 02:01N 37°57' E 023°37'0 0.0
2018-Jul-13 01:31N 37°57' E 023°37'0 0.0
2018-Jul-13 01:01N 37°57' E 023°37'0 0.0
2018-Jul-13 00:31N 37°57' E 023°37'1 2.1
2018-Jul-13 00:01N 37°57' E 023°35'1 1.5
2018-Jul-12 23:30N 37°57' E 023°35'1 2.0
2018-Jul-12 23:01N 37°56' E 023°36'2 3.2
2018-Jul-12 22:31N 37°57' E 023°36'1 1.0
2018-Jul-12 22:01N 37°57' E 023°37'0 0.0
2018-Jul-12 21:31N 37°57' E 023°37'0 0.0
2018-Jul-12 21:01N 37°57' E 023°37'0 0.0
2018-Jul-12 20:31N 37°57' E 023°37'0 0.0
2018-Jul-12 11:45N 37°57' E 023°37'1 3.9
2018-Jul-12 11:30N 37°57' E 023°36'0 0.4
2018-Jul-12 10:59N 37°57' E 023°35'1 2.4
2018-Jul-12 10:30N 37°57' E 023°37'1 1.5
2018-Jul-12 10:00N 37°57' E 023°36'2 3.4
2018-Jul-12 09:30N 37°58' E 023°34'0 0.0
2018-Jul-12 09:00N 37°58' E 023°34'1 2.8
2018-Jul-12 08:30N 37°57' E 023°35'0 0.9
2018-Jul-12 08:00N 37°57' E 023°35'0 0.0
2018-Jul-12 07:30N 37°57' E 023°35'0 0.0
2018-Jul-12 07:00N 37°57' E 023°35'0 0.1
2018-Jul-12 06:30N 37°57' E 023°35'1 2.9
2018-Jul-12 06:00N 37°57' E 023°37'0 0.0
2018-Jul-12 05:30N 37°57' E 023°37'0 0.0
2018-Jul-12 05:00N 37°57' E 023°37'0 0.0
2018-Jul-12 04:30N 37°57' E 023°37'0 0.0
2018-Jul-12 03:59N 37°57' E 023°37'0 0.0
2018-Jul-12 03:30N 37°57' E 023°37'0 0.0
2018-Jul-12 03:00N 37°57' E 023°37'0 0.0
2018-Jul-11 15:45N 37°57' E 023°37'1 5.1
2018-Jul-11 15:31N 37°57' E 023°35'4 7.6
2018-Jul-11 15:00N 38°01' E 023°34'1 2.6
2018-Jul-11 14:31N 38°02' E 023°36'0 0.4
2018-Jul-11 14:00N 38°01' E 023°36'0 0.0
2018-Jul-11 13:30N 38°01' E 023°36'0 0.0
2018-Jul-11 13:00N 38°01' E 023°35'0 0.0
2018-Jul-11 12:28N 38°01' E 023°36'0 0.0
2018-Jul-11 12:00N 38°01' E 023°36'0 0.0
2018-Jul-11 11:30N 38°01' E 023°36'0 0.1
2018-Jul-11 10:59N 38°01' E 023°35'0 0.0
2018-Jul-11 10:30N 38°01' E 023°35'0 0.0
2018-Jul-11 09:59N 38°01' E 023°35'0 0.0
2018-Jul-11 09:29N 38°01' E 023°35'0 0.1
2018-Jul-11 09:01N 38°01' E 023°36'0 0.1
2018-Jul-11 08:28N 38°01' E 023°36'0 0.0
2018-Jul-11 07:52N 38°01' E 023°36'0 0.0
2018-Jul-11 07:30N 38°01' E 023°35'0 0.0
2018-Jul-11 06:15N 38°01' E 023°36'0 0.0
2018-Jul-11 05:59N 38°01' E 023°36'0 0.0
2018-Jul-11 05:30N 38°01' E 023°36'0 0.0
2018-Jul-11 05:00N 38°01' E 023°36'0 0.0
2018-Jul-11 04:29N 38°01' E 023°36'0 0.0
2018-Jul-11 04:00N 38°01' E 023°36'0 0.0
2018-Jul-11 03:30N 38°01' E 023°36'0 0.0
2018-Jul-11 03:00N 38°01' E 023°36'0 0.0
2018-Jul-11 02:29N 38°01' E 023°36'0 0.0
2018-Jul-11 01:55N 38°01' E 023°36'0 0.0
2018-Jul-11 01:31N 38°01' E 023°35'0 0.0
2018-Jul-11 01:00N 38°01' E 023°35'0 0.0
2018-Jul-11 00:30N 38°01' E 023°36'0 0.0
2018-Jul-11 00:01N 38°01' E 023°36'0 0.0
2018-Jul-10 23:30N 38°01' E 023°36'0 0.0
2018-Jul-10 23:00N 38°01' E 023°36'0 0.0
2018-Jul-10 22:30N 38°01' E 023°36'0 0.0
2018-Jul-10 22:00N 38°01' E 023°36'0 0.0
2018-Jul-10 21:30N 38°01' E 023°36'0 0.0
2018-Jul-10 21:00N 38°01' E 023°36'0 0.0
2018-Jul-10 20:30N 38°01' E 023°36'0 0.0
2018-Jul-10 20:00N 38°01' E 023°35'0 0.0
2018-Jul-10 19:30N 38°01' E 023°36'0 0.0
2018-Jul-10 19:00N 38°01' E 023°36'0 0.0
2018-Jul-10 18:28N 38°01' E 023°36'0 0.0
2018-Jul-10 15:29N 38°01' E 023°36'0 0.0
2018-Jul-10 14:42N 38°01' E 023°36'0 0.0
2018-Jul-10 14:30N 38°01' E 023°36'0 0.0
2018-Jul-10 14:00N 38°01' E 023°36'0 0.0
2018-Jul-10 13:31N 38°01' E 023°36'0 0.0
2018-Jul-10 13:00N 38°01' E 023°36'0 0.0
2018-Jul-10 11:20N 38°01' E 023°36'0 0.0
2018-Jul-10 10:22N 38°01' E 023°36'0 0.0
2018-Jul-10 10:00N 38°01' E 023°36'0 0.0
2018-Jul-10 09:21N 38°01' E 023°36'0 0.0
2018-Jul-10 09:00N 38°01' E 023°36'0 0.0
2018-Jul-10 08:30N 38°01' E 023°36'0 0.0
2018-Jul-10 07:53N 38°01' E 023°36'0 0.0
2018-Jul-10 07:27N 38°01' E 023°36'0 0.0
2018-Jul-10 07:00N 38°01' E 023°36'0 0.0
2018-Jul-10 06:30N 38°01' E 023°36'0 0.0
2018-Jul-10 06:00N 38°01' E 023°36'0 0.0
2018-Jul-10 05:30N 38°01' E 023°36'0 0.0
2018-Jul-10 05:00N 38°01' E 023°36'0 0.0
2018-Jul-10 04:30N 38°01' E 023°36'0 0.0
2018-Jul-10 04:00N 38°01' E 023°36'0 0.0
2018-Jul-10 03:30N 38°01' E 023°36'0 0.0
2018-Jul-10 03:00N 38°01' E 023°36'0 0.0
2018-Jul-10 02:30N 38°01' E 023°36'0 0.0
2018-Jul-10 02:00N 38°01' E 023°36'0 0.0
2018-Jul-10 01:30N 38°01' E 023°36'0 0.0
2018-Jul-10 01:00N 38°01' E 023°36'0 0.0
2018-Jul-10 00:30N 38°01' E 023°36'0 0.0
2018-Jul-10 00:00N 38°01' E 023°36'0 0.0
2018-Jul-09 23:30N 38°01' E 023°36'0 0.0
2018-Jul-09 23:00N 38°01' E 023°36'0 0.0
2018-Jul-09 22:30N 38°01' E 023°36'0 0.0
2018-Jul-09 22:00N 38°01' E 023°36'0 0.0
2018-Jul-09 21:30N 38°01' E 023°36'  
Track history (hours):
 
Tides and Currents Weather Stations Pressure Air Temp Water Temp Dewpoint Dewpoint Depression Visibility Wind Speed Wind Dir Waves Ship Positions

Vernicos Oceanos

Last reported at 2018-Jul-19 21:09 UTC. Time now 2018-Jul-20 23:46 UTC.
Position N 37°57' E 023°37'.

; draft 4 m.

MMSI: 239998500.

Date/timePositionNaut miles runAvg speedWind from/ knotsBaromVisibWave heightAir tempDewpointWater temp
2018-Jul-19 21:09N 37°57' E 023°37'0 2.3
2018-Jul-19 21:00N 37°57' E 023°36'4 7.2
2018-Jul-19 20:30N 38°00' E 023°34'2 4.0
2018-Jul-19 20:00N 38°02' E 023°36'0 0.0
2018-Jul-19 19:25N 38°02' E 023°36'0 0.6
2018-Jul-19 18:59N 38°01' E 023°35'0 0.1
2018-Jul-19 18:19N 38°02' E 023°36'0 0.5
2018-Jul-19 18:00N 38°01' E 023°36'0 0.2
2018-Jul-19 17:30N 38°01' E 023°36'0 0.0
2018-Jul-19 07:22N 38°01' E 023°35'0 0.7
2018-Jul-19 07:00N 38°02' E 023°36'1 1.4
2018-Jul-19 06:31N 38°01' E 023°35'0 0.0
2018-Jul-18 14:29N 38°01' E 023°36'0 0.2
2018-Jul-18 13:30N 38°02' E 023°35'1 2.3
2018-Jul-18 13:00N 38°01' E 023°34'2 4.1
2018-Jul-18 12:29N 38°01' E 023°31'0 0.3
2018-Jul-18 12:00N 38°01' E 023°31'4 7.6
2018-Jul-18 11:30N 37°57' E 023°34'3 2.6
2018-Jul-18 10:30N 37°57' E 023°37'0 0.0
2018-Jul-18 10:01N 37°57' E 023°37'0 0.0
2018-Jul-18 09:31N 37°57' E 023°37'1 1.6
2018-Jul-18 09:00N 37°57' E 023°37'0 0.0
2018-Jul-18 08:30N 37°57' E 023°37'0 0.0
2018-Jul-18 08:00N 37°57' E 023°37'0 0.0
2018-Jul-18 07:30N 37°57' E 023°37'0 0.0
2018-Jul-18 07:01N 37°57' E 023°37'0 0.0
2018-Jul-18 06:30N 37°57' E 023°37'0 0.0
2018-Jul-18 06:01N 37°57' E 023°37'0 0.0
2018-Jul-18 05:30N 37°57' E 023°37'0 0.0
2018-Jul-18 05:01N 37°57' E 023°37'0 0.0
2018-Jul-18 04:30N 37°57' E 023°37'0 0.0
2018-Jul-18 04:00N 37°57' E 023°37'0 0.0
2018-Jul-18 03:31N 37°57' E 023°37'0 0.0
2018-Jul-18 03:00N 37°57' E 023°37'0 0.0
2018-Jul-18 02:30N 37°57' E 023°37'0 0.0
2018-Jul-18 02:01N 37°57' E 023°37'0 0.0
2018-Jul-18 01:31N 37°57' E 023°37'0 0.0
2018-Jul-18 01:01N 37°57' E 023°37'0 0.0
2018-Jul-18 00:30N 37°57' E 023°37'0 0.0
2018-Jul-18 00:00N 37°57' E 023°37'0 0.0
2018-Jul-17 23:30N 37°57' E 023°37'0 0.0
2018-Jul-17 23:00N 37°57' E 023°37'0 0.0
2018-Jul-17 22:31N 37°57' E 023°37'0 0.0
2018-Jul-17 22:01N 37°57' E 023°37'0 0.0
2018-Jul-17 21:31N 37°57' E 023°37'0 0.0
2018-Jul-17 21:00N 37°57' E 023°37'0 0.0
2018-Jul-17 20:31N 37°57' E 023°37'0 0.0
2018-Jul-17 20:00N 37°57' E 023°37'0 0.0
2018-Jul-17 19:31N 37°57' E 023°37'0 0.0
2018-Jul-17 19:00N 37°57' E 023°37'0 0.0
2018-Jul-17 18:30N 37°57' E 023°37'0 0.0
2018-Jul-17 18:00N 37°57' E 023°37'0 0.0
2018-Jul-17 17:31N 37°57' E 023°37'0 0.0
2018-Jul-17 17:00N 37°57' E 023°37'0 0.0
2018-Jul-17 16:31N 37°57' E 023°37'0 0.0
2018-Jul-17 16:01N 37°57' E 023°37'0 0.0
2018-Jul-17 15:31N 37°57' E 023°37'0 0.0
2018-Jul-17 15:01N 37°57' E 023°37'0 0.0
2018-Jul-17 14:30N 37°57' E 023°37'0 0.0
2018-Jul-17 14:01N 37°57' E 023°37'0 0.0
2018-Jul-17 13:30N 37°57' E 023°37'0 0.0
2018-Jul-17 13:00N 37°57' E 023°37'0 0.0
2018-Jul-17 12:30N 37°57' E 023°37'0 0.1
2018-Jul-17 12:01N 37°57' E 023°37'0 0.0
2018-Jul-17 11:31N 37°57' E 023°37'0 0.8
2018-Jul-17 11:01N 37°58' E 023°36'2 3.0
2018-Jul-17 10:31N 37°56' E 023°36'1 2.8
2018-Jul-17 10:01N 37°57' E 023°37'0 0.0
2018-Jul-17 09:31N 37°57' E 023°37'1 2.2
2018-Jul-17 09:01N 37°57' E 023°35'2 3.1
2018-Jul-17 08:30N 37°55' E 023°36'2 3.4
2018-Jul-17 08:00N 37°57' E 023°35'1 2.1
2018-Jul-17 07:30N 37°57' E 023°37'0 0.0
2018-Jul-17 07:00N 37°57' E 023°37'0 0.0
2018-Jul-17 06:30N 37°57' E 023°37'0 0.0
2018-Jul-17 06:00N 37°57' E 023°37'0 0.0
2018-Jul-16 11:15N 37°57' E 023°37'0 0.0
2018-Jul-16 11:00N 37°57' E 023°37'0 0.0
2018-Jul-16 10:31N 37°57' E 023°37'0 0.6
2018-Jul-16 10:01N 37°57' E 023°36'1 1.9
2018-Jul-16 09:30N 37°57' E 023°36'1 2.0
2018-Jul-16 09:00N 37°57' E 023°37'0 0.0
2018-Jul-16 08:30N 37°57' E 023°37'0 0.0
2018-Jul-16 08:00N 37°57' E 023°37'0 0.0
2018-Jul-16 07:30N 37°57' E 023°37'1 3.0
2018-Jul-16 07:00N 37°57' E 023°35'0 0.5
2018-Jul-16 06:30N 37°57' E 023°35'2 3.1
2018-Jul-16 06:00N 37°55' E 023°35'1 1.3
2018-Jul-16 05:30N 37°56' E 023°35'2 3.6
2018-Jul-16 05:00N 37°57' E 023°37'0 0.0
2018-Jul-16 04:30N 37°57' E 023°37'0 0.0
2018-Jul-16 04:00N 37°57' E 023°37'0 0.0
2018-Jul-16 03:30N 37°57' E 023°37'0 0.0
2018-Jul-16 03:00N 37°57' E 023°37'0 0.0
2018-Jul-15 18:13N 37°57' E 023°37'0 0.0
2018-Jul-15 18:00N 37°57' E 023°37'0 0.0
2018-Jul-15 17:30N 37°57' E 023°37'0 0.0
2018-Jul-15 17:00N 37°57' E 023°37'0 0.0
2018-Jul-15 16:30N 37°57' E 023°37'0 0.0
2018-Jul-15 16:00N 37°57' E 023°37'2 3.9
2018-Jul-15 15:30N 37°57' E 023°34'3 6.0
2018-Jul-15 15:00N 38°00' E 023°34'2 3.8
2018-Jul-15 14:30N 38°01' E 023°35'0 0.0
2018-Jul-15 14:00N 38°01' E 023°35'0 0.0
2018-Jul-15 13:30N 38°01' E 023°36'0 0.0
2018-Jul-15 13:00N 38°01' E 023°35'0 0.0
2018-Jul-15 12:29N 38°01' E 023°35'0 0.0
2018-Jul-15 12:00N 38°01' E 023°35'0 0.0
2018-Jul-15 11:30N 38°01' E 023°35'0 0.0
2018-Jul-15 11:00N 38°01' E 023°35'0 0.0
2018-Jul-15 10:30N 38°01' E 023°35'0 0.5
2018-Jul-15 10:00N 38°02' E 023°36'1 1.9
2018-Jul-15 09:30N 38°01' E 023°35'2 3.9
2018-Jul-15 09:00N 38°01' E 023°32'1 2.2
2018-Jul-15 08:30N 37°60' E 023°33'2 4.7
2018-Jul-15 08:00N 37°58' E 023°33'2 3.4
2018-Jul-15 07:30N 37°57' E 023°35'0 0.6
2018-Jul-15 07:00N 37°57' E 023°35'1 1.8
2018-Jul-15 06:30N 37°57' E 023°36'0 0.2
2018-Jul-15 06:00N 37°57' E 023°36'0 0.0
2018-Jul-15 05:30N 37°57' E 023°36'1 1.3
2018-Jul-15 05:00N 37°57' E 023°36'1 1.3
2018-Jul-15 04:30N 37°57' E 023°36'0 0.0
2018-Jul-15 04:00N 37°57' E 023°36'0 0.2
2018-Jul-15 03:30N 37°57' E 023°36'1 1.5
2018-Jul-15 03:00N 37°57' E 023°37'0 0.0
2018-Jul-14 16:49N 37°57' E 023°37'1 3.4
2018-Jul-14 16:30N 37°57' E 023°35'0 0.1
2018-Jul-14 16:00N 37°57' E 023°35'0 0.3
2018-Jul-14 15:30N 37°57' E 023°35'0 0.0
2018-Jul-14 15:00N 37°57' E 023°35'0 0.0
2018-Jul-14 14:30N 37°57' E 023°35'0 0.0
2018-Jul-14 13:30N 37°57' E 023°35'0 0.0
2018-Jul-14 13:00N 37°57' E 023°35'0 0.0
2018-Jul-14 12:30N 37°57' E 023°35'0 0.1
2018-Jul-14 12:00N 37°57' E 023°35'0 0.1
2018-Jul-14 11:30N 37°57' E 023°35'1 2.6
2018-Jul-14 11:00N 37°56' E 023°36'1 2.0
2018-Jul-14 10:30N 37°56' E 023°35'2 4.2
2018-Jul-14 10:00N 37°57' E 023°37'0 0.0
2018-Jul-14 09:30N 37°57' E 023°37'0 0.0
2018-Jul-14 09:00N 37°57' E 023°37'0 0.0
2018-Jul-14 08:30N 37°57' E 023°37'0 0.0
2018-Jul-14 08:00N 37°57' E 023°37'0 0.0
2018-Jul-14 07:30N 37°57' E 023°37'0 0.0
2018-Jul-14 07:00N 37°57' E 023°37'0 0.0
2018-Jul-14 06:30N 37°57' E 023°37'0 0.0
2018-Jul-14 06:00N 37°57' E 023°37'0 0.9
2018-Jul-14 05:30N 37°57' E 023°36'1 1.2
2018-Jul-14 05:00N 37°57' E 023°36'1 1.5
2018-Jul-14 04:30N 37°56' E 023°36'1 2.8
2018-Jul-14 04:00N 37°57' E 023°37'0 0.0
2018-Jul-14 03:31N 37°57' E 023°37'0 0.0
2018-Jul-14 03:00N 37°57' E 023°37'0 0.0
2018-Jul-13 11:00N 37°57' E 023°37'1 1.4
2018-Jul-13 10:30N 37°57' E 023°36'4 8.8
2018-Jul-13 10:00N 38°00' E 023°32'2 4.3
2018-Jul-13 09:27N 38°02' E 023°30'0 0.7
2018-Jul-13 09:00N 38°02' E 023°30'0 0.6
2018-Jul-13 08:30N 38°02' E 023°30'510.1
2018-Jul-13 08:00N 37°58' E 023°33'3 5.8
2018-Jul-13 07:30N 37°57' E 023°37'0 0.0
2018-Jul-13 07:00N 37°57' E 023°37'0 0.0
2018-Jul-13 06:30N 37°57' E 023°37'0 0.0
2018-Jul-13 06:00N 37°57' E 023°37'0 0.0
2018-Jul-13 05:30N 37°57' E 023°37'0 0.8
2018-Jul-13 05:00N 37°58' E 023°36'1 2.2
2018-Jul-13 04:31N 37°57' E 023°36'1 1.8
2018-Jul-13 04:00N 37°57' E 023°36'0 0.6
2018-Jul-13 03:31N 37°57' E 023°37'0 0.0
2018-Jul-13 03:01N 37°57' E 023°37'0 0.0
2018-Jul-13 02:31N 37°57' E 023°37'0 0.0
2018-Jul-13 02:01N 37°57' E 023°37'0 0.0
2018-Jul-13 01:31N 37°57' E 023°37'0 0.0
2018-Jul-13 01:01N 37°57' E 023°37'0 0.0
2018-Jul-13 00:31N 37°57' E 023°37'1 2.1
2018-Jul-13 00:01N 37°57' E 023°35'1 1.5
2018-Jul-12 23:30N 37°57' E 023°35'1 2.0
2018-Jul-12 23:01N 37°56' E 023°36'2 3.2
2018-Jul-12 22:31N 37°57' E 023°36'1 1.0
2018-Jul-12 22:01N 37°57' E 023°37'0 0.0
2018-Jul-12 21:31N 37°57' E 023°37'0 0.0
2018-Jul-12 21:01N 37°57' E 023°37'0 0.0
2018-Jul-12 20:31N 37°57' E 023°37'0 0.0
2018-Jul-12 11:45N 37°57' E 023°37'1 3.9
2018-Jul-12 11:30N 37°57' E 023°36'0 0.4
2018-Jul-12 10:59N 37°57' E 023°35'1 2.4
2018-Jul-12 10:30N 37°57' E 023°37'1 1.5
2018-Jul-12 10:00N 37°57' E 023°36'2 3.4
2018-Jul-12 09:30N 37°58' E 023°34'0 0.0
2018-Jul-12 09:00N 37°58' E 023°34'1 2.8
2018-Jul-12 08:30N 37°57' E 023°35'0 0.9
2018-Jul-12 08:00N 37°57' E 023°35'0 0.0
2018-Jul-12 07:30N 37°57' E 023°35'0 0.0
2018-Jul-12 07:00N 37°57' E 023°35'0 0.1
2018-Jul-12 06:30N 37°57' E 023°35'1 2.9
2018-Jul-12 06:00N 37°57' E 023°37'0 0.0
2018-Jul-12 05:30N 37°57' E 023°37'0 0.0
2018-Jul-12 05:00N 37°57' E 023°37'0 0.0
2018-Jul-12 04:30N 37°57' E 023°37'0 0.0
2018-Jul-12 03:59N 37°57' E 023°37'0 0.0
2018-Jul-12 03:30N 37°57' E 023°37'0 0.0
2018-Jul-12 03:00N 37°57' E 023°37'0 0.0
2018-Jul-11 15:45N 37°57' E 023°37'1 5.1
2018-Jul-11 15:31N 37°57' E 023°35'4 7.6
2018-Jul-11 15:00N 38°01' E 023°34'1 2.6
2018-Jul-11 14:31N 38°02' E 023°36'0 0.4
2018-Jul-11 14:00N 38°01' E 023°36'0 0.0
2018-Jul-11 13:30N 38°01' E 023°36'0 0.0
2018-Jul-11 13:00N 38°01' E 023°35'0 0.0
2018-Jul-11 12:28N 38°01' E 023°36'0 0.0
2018-Jul-11 12:00N 38°01' E 023°36'0 0.0
2018-Jul-11 11:30N 38°01' E 023°36'0 0.1
2018-Jul-11 10:59N 38°01' E 023°35'0 0.0
2018-Jul-11 10:30N 38°01' E 023°35'0 0.0
2018-Jul-11 09:59N 38°01' E 023°35'0 0.0
2018-Jul-11 09:29N 38°01' E 023°35'0 0.1
2018-Jul-11 09:01N 38°01' E 023°36'0 0.1
2018-Jul-11 08:28N 38°01' E 023°36'0 0.0
2018-Jul-11 07:52N 38°01' E 023°36'0 0.0
2018-Jul-11 07:30N 38°01' E 023°35'0 0.0
2018-Jul-11 06:15N 38°01' E 023°36'0 0.0
2018-Jul-11 05:59N 38°01' E 023°36'0 0.0
2018-Jul-11 05:30N 38°01' E 023°36'0 0.0
2018-Jul-11 05:00N 38°01' E 023°36'0 0.0
2018-Jul-11 04:29N 38°01' E 023°36'0 0.0
2018-Jul-11 04:00N 38°01' E 023°36'0 0.0
2018-Jul-11 03:30N 38°01' E 023°36'0 0.0
2018-Jul-11 03:00N 38°01' E 023°36'0 0.0
2018-Jul-11 02:29N 38°01' E 023°36'0 0.0
2018-Jul-11 01:55N 38°01' E 023°36'0 0.0
2018-Jul-11 01:31N 38°01' E 023°35'0 0.0
2018-Jul-11 01:00N 38°01' E 023°35'0 0.0
2018-Jul-11 00:30N 38°01' E 023°36'0 0.0
2018-Jul-11 00:01N 38°01' E 023°36'0 0.0
2018-Jul-10 23:30N 38°01' E 023°36'0 0.0
2018-Jul-10 23:00N 38°01' E 023°36'0 0.0
2018-Jul-10 22:30N 38°01' E 023°36'0 0.0
2018-Jul-10 22:00N 38°01' E 023°36'0 0.0
2018-Jul-10 21:30N 38°01' E 023°36'0 0.0
2018-Jul-10 21:00N 38°01' E 023°36'0 0.0
2018-Jul-10 20:30N 38°01' E 023°36'0 0.0
2018-Jul-10 20:00N 38°01' E 023°35'0 0.0
2018-Jul-10 19:30N 38°01' E 023°36'0 0.0
2018-Jul-10 19:00N 38°01' E 023°36'0 0.0
2018-Jul-10 18:28N 38°01' E 023°36'0 0.0
2018-Jul-10 15:29N 38°01' E 023°36'0 0.0
2018-Jul-10 14:42N 38°01' E 023°36'0 0.0
2018-Jul-10 14:30N 38°01' E 023°36'0 0.0
2018-Jul-10 14:00N 38°01' E 023°36'0 0.0
2018-Jul-10 13:31N 38°01' E 023°36'0 0.0
2018-Jul-10 13:00N 38°01' E 023°36'0 0.0
2018-Jul-10 11:20N 38°01' E 023°36'0 0.0
2018-Jul-10 10:22N 38°01' E 023°36'0 0.0
2018-Jul-10 10:00N 38°01' E 023°36'0 0.0
2018-Jul-10 09:21N 38°01' E 023°36'0 0.0
2018-Jul-10 09:00N 38°01' E 023°36'0 0.0
2018-Jul-10 08:30N 38°01' E 023°36'0 0.0
2018-Jul-10 07:53N 38°01' E 023°36'0 0.0
2018-Jul-10 07:27N 38°01' E 023°36'0 0.0
2018-Jul-10 07:00N 38°01' E 023°36'0 0.0
2018-Jul-10 06:30N 38°01' E 023°36'0 0.0
2018-Jul-10 06:00N 38°01' E 023°36'0 0.0
2018-Jul-10 05:30N 38°01' E 023°36'0 0.0
2018-Jul-10 05:00N 38°01' E 023°36'0 0.0
2018-Jul-10 04:30N 38°01' E 023°36'0 0.0
2018-Jul-10 04:00N 38°01' E 023°36'0 0.0
2018-Jul-10 03:30N 38°01' E 023°36'0 0.0
2018-Jul-10 03:00N 38°01' E 023°36'0 0.0
2018-Jul-10 02:30N 38°01' E 023°36'0 0.0
2018-Jul-10 02:00N 38°01' E 023°36'0 0.0
2018-Jul-10 01:30N 38°01' E 023°36'0 0.0
2018-Jul-10 01:00N 38°01' E 023°36'0 0.0
2018-Jul-10 00:30N 38°01' E 023°36'0 0.0
2018-Jul-10 00:00N 38°01' E 023°36'0 0.0
2018-Jul-09 23:30N 38°01' E 023°36'0 0.0
2018-Jul-09 23:00N 38°01' E 023°36'0 0.0
2018-Jul-09 22:30N 38°01' E 023°36'0 0.0
2018-Jul-09 22:00N 38°01' E 023°36'0 0.0
2018-Jul-09 21:30N 38°01' E 023°36'  

Dump ship's entire track history